createdAt,value
2023-11-25T00:00:11.078Z,66.29
2023-11-25T00:01:11.186Z,66.32
2023-11-25T00:02:11.194Z,66.38
2023-11-25T00:03:11.081Z,66.37
2023-11-25T00:04:11.077Z,66.41
2023-11-25T00:05:11.089Z,66.45
2023-11-25T00:06:11.074Z,66.47
2023-11-25T00:07:11.109Z,66.43
2023-11-25T00:08:11.088Z,66.46
2023-11-25T00:09:11.073Z,66.44
2023-11-25T00:10:11.153Z,66.48
2023-11-25T00:11:17.613Z,66.50
2023-11-25T00:12:13.100Z,66.54
2023-11-25T00:13:11.090Z,66.50
2023-11-25T00:14:11.078Z,66.58
2023-11-25T00:15:11.077Z,66.53
2023-11-25T00:16:11.111Z,66.53
2023-11-25T00:17:11.151Z,66.62
2023-11-25T00:18:11.167Z,66.67
2023-11-25T00:19:11.090Z,66.66
2023-11-25T00:20:11.079Z,66.63
2023-11-25T00:21:11.072Z,66.67
2023-11-25T00:22:11.097Z,66.71
2023-11-25T00:23:11.081Z,66.76
2023-11-25T00:24:11.073Z,66.78
2023-11-25T00:25:11.129Z,66.78
2023-11-25T00:26:11.073Z,66.93
2023-11-25T00:27:11.095Z,67.08
2023-11-25T00:28:11.112Z,67.05
2023-11-25T00:29:11.070Z,67.12
2023-11-25T00:30:11.102Z,67.19
2023-11-25T00:31:11.117Z,67.26
2023-11-25T00:32:11.063Z,67.34
2023-11-25T00:33:11.127Z,67.38
2023-11-25T00:34:11.172Z,67.49
2023-11-25T00:35:13.081Z,67.46
2023-11-25T00:36:11.064Z,67.54
2023-11-25T00:37:11.091Z,67.54
2023-11-25T00:38:13.063Z,67.50
2023-11-25T00:39:11.070Z,67.43
2023-11-25T00:40:11.176Z,67.46
2023-11-25T00:41:13.062Z,67.42
2023-11-25T00:42:11.061Z,67.34
2023-11-25T00:43:11.089Z,67.38
2023-11-25T00:44:12.065Z,67.32
2023-11-25T00:45:11.200Z,67.21
2023-11-25T00:46:11.214Z,67.29
2023-11-25T00:47:15.119Z,67.26
2023-11-25T00:48:11.231Z,67.30
2023-11-25T00:49:11.089Z,67.33
2023-11-25T00:50:11.074Z,67.26
2023-11-25T00:51:11.075Z,67.20
2023-11-25T00:52:11.076Z,67.23
2023-11-25T00:53:11.070Z,67.24
2023-11-25T00:54:11.066Z,67.21
2023-11-25T00:55:11.147Z,67.21
2023-11-25T00:56:11.071Z,67.13
2023-11-25T00:57:11.069Z,67.06
2023-11-25T00:58:11.069Z,67.12
2023-11-25T00:59:11.073Z,67.17
2023-11-25T01:00:11.062Z,67.14
2023-11-25T01:01:11.102Z,67.10
2023-11-25T01:02:11.164Z,67.19
2023-11-25T01:03:11.198Z,67.20
2023-11-25T01:04:11.090Z,67.16
2023-11-25T01:05:11.069Z,67.09
2023-11-25T01:06:11.063Z,67.16
2023-11-25T01:07:11.113Z,67.13
2023-11-25T01:08:11.082Z,67.20
2023-11-25T01:09:12.067Z,67.19
2023-11-25T01:10:11.147Z,67.11
2023-11-25T01:11:11.072Z,67.09
2023-11-25T01:12:11.072Z,67.21
2023-11-25T01:13:11.099Z,67.15
2023-11-25T01:14:11.119Z,67.21
2023-11-25T01:15:11.064Z,67.19
2023-11-25T01:16:17.203Z,67.20
2023-11-25T01:17:11.105Z,67.24
2023-11-25T01:18:11.096Z,67.20
2023-11-25T01:19:11.110Z,67.21
2023-11-25T01:20:11.076Z,67.15
2023-11-25T01:21:11.064Z,67.12
2023-11-25T01:22:11.185Z,67.20
2023-11-25T01:23:11.073Z,67.11
2023-11-25T01:24:11.066Z,67.09
2023-11-25T01:25:11.108Z,67.18
2023-11-25T01:26:11.086Z,67.20
2023-11-25T01:27:11.072Z,67.10
2023-11-25T01:28:11.109Z,67.10
2023-11-25T01:29:11.078Z,67.17
2023-11-25T01:30:11.081Z,67.20
2023-11-25T01:31:11.091Z,67.19
2023-11-25T01:32:11.067Z,67.19
2023-11-25T01:33:11.074Z,67.17
2023-11-25T01:34:11.120Z,67.13
2023-11-25T01:35:11.128Z,67.12
2023-11-25T01:36:11.074Z,67.23
2023-11-25T01:37:11.169Z,67.14
2023-11-25T01:38:11.070Z,67.14
2023-11-25T01:39:13.069Z,67.12
2023-11-25T01:40:11.101Z,67.10
2023-11-25T01:41:11.074Z,67.16
2023-11-25T01:42:11.108Z,67.16
2023-11-25T01:43:11.103Z,67.18
2023-11-25T01:44:12.076Z,67.17
2023-11-25T01:45:11.091Z,67.20
2023-11-25T01:46:11.123Z,67.21
2023-11-25T01:47:11.124Z,67.23
2023-11-25T01:48:11.092Z,67.16
2023-11-25T01:49:13.710Z,67.16
2023-11-25T01:50:11.070Z,67.13
2023-11-25T01:51:11.085Z,67.20
2023-11-25T01:52:11.115Z,67.20
2023-11-25T01:53:11.073Z,67.16
2023-11-25T01:54:11.080Z,67.13
2023-11-25T01:55:13.114Z,67.09
2023-11-25T01:56:11.071Z,67.19
2023-11-25T01:57:11.072Z,67.16
2023-11-25T01:58:11.108Z,67.06
2023-11-25T01:59:11.070Z,67.33
2023-11-25T02:00:13.071Z,67.28
2023-11-25T02:01:11.157Z,67.25
2023-11-25T02:02:11.162Z,67.25
2023-11-25T02:03:11.108Z,67.22
2023-11-25T02:04:11.164Z,67.16
2023-11-25T02:05:11.141Z,67.14
2023-11-25T02:06:11.082Z,67.21
2023-11-25T02:07:12.096Z,67.17
2023-11-25T02:08:12.072Z,67.19
2023-11-25T02:09:11.079Z,67.22
2023-11-25T02:10:11.136Z,67.29
2023-11-25T02:11:11.078Z,67.15
2023-11-25T02:12:11.081Z,67.21
2023-11-25T02:13:13.125Z,67.16
2023-11-25T02:14:11.087Z,67.12
2023-11-25T02:15:13.178Z,67.19
2023-11-25T02:16:11.124Z,67.10
2023-11-25T02:17:11.186Z,67.09
2023-11-25T02:18:11.109Z,67.17
2023-11-25T02:19:12.095Z,67.15
2023-11-25T02:20:11.068Z,67.29
2023-11-25T02:21:11.074Z,67.32
2023-11-25T02:22:12.116Z,67.35
2023-11-25T02:23:17.083Z,67.52
2023-11-25T02:24:11.074Z,67.54
2023-11-25T02:25:11.100Z,67.64
2023-11-25T02:26:11.069Z,67.74
2023-11-25T02:27:11.078Z,67.90
2023-11-25T02:28:11.094Z,68.02
2023-11-25T02:29:11.101Z,68.02
2023-11-25T02:30:13.079Z,68.16
2023-11-25T02:31:11.163Z,68.18
2023-11-25T02:32:11.192Z,68.25
2023-11-25T02:33:12.135Z,68.22
2023-11-25T02:34:14.118Z,68.17
2023-11-25T02:35:11.071Z,68.25
2023-11-25T02:36:12.078Z,68.35
2023-11-25T02:37:11.081Z,68.38
2023-11-25T02:38:11.077Z,68.32
2023-11-25T02:39:11.084Z,68.32
2023-11-25T02:40:11.240Z,68.28
2023-11-25T02:41:11.070Z,68.14
2023-11-25T02:42:11.091Z,68.17
2023-11-25T02:43:12.106Z,68.23
2023-11-25T02:44:12.097Z,68.34
2023-11-25T02:45:11.073Z,68.34
2023-11-25T02:46:11.098Z,68.38
2023-11-25T02:47:11.096Z,68.35
2023-11-25T02:48:11.192Z,68.36
2023-11-25T02:49:11.094Z,68.34
2023-11-25T02:50:11.072Z,68.41
2023-11-25T02:51:11.071Z,68.39
2023-11-25T02:52:11.096Z,68.43
2023-11-25T02:53:11.088Z,68.40
2023-11-25T02:54:11.081Z,68.54
2023-11-25T02:55:11.095Z,68.57
2023-11-25T02:56:11.074Z,68.52
2023-11-25T02:57:12.080Z,68.55
2023-11-25T02:58:11.101Z,68.55
2023-11-25T02:59:11.099Z,68.54
2023-11-25T03:00:15.076Z,68.49
2023-11-25T03:01:12.137Z,68.45
2023-11-25T03:02:14.201Z,68.46
2023-11-25T03:03:14.468Z,68.42
2023-11-25T03:04:11.136Z,68.35
2023-11-25T03:05:11.071Z,68.37
2023-11-25T03:06:11.200Z,68.30
2023-11-25T03:07:11.083Z,68.37
2023-11-25T03:08:11.256Z,68.46
2023-11-25T03:09:11.076Z,68.45
2023-11-25T03:10:11.119Z,68.42
2023-11-25T03:11:21.090Z,68.36
2023-11-25T03:12:11.072Z,68.43
2023-11-25T03:13:11.080Z,68.47
2023-11-25T03:14:11.079Z,68.49
2023-11-25T03:15:11.073Z,68.45
2023-11-25T03:16:11.139Z,68.35
2023-11-25T03:17:11.164Z,68.34
2023-11-25T03:18:13.089Z,68.34
2023-11-25T03:19:11.136Z,68.37
2023-11-25T03:20:11.070Z,68.37
2023-11-25T03:21:11.273Z,68.37
2023-11-25T03:22:11.091Z,68.45
2023-11-25T03:23:11.077Z,68.51
2023-11-25T03:24:12.083Z,68.45
2023-11-25T03:25:11.097Z,68.48
2023-11-25T03:26:11.070Z,68.52
2023-11-25T03:27:11.082Z,68.56
2023-11-25T03:28:12.537Z,68.60
2023-11-25T03:29:11.074Z,68.62
2023-11-25T03:30:13.069Z,68.66
2023-11-25T03:31:11.094Z,68.71
2023-11-25T03:32:11.102Z,68.80
2023-11-25T03:33:11.464Z,68.76
2023-11-25T03:34:11.075Z,68.72
2023-11-25T03:35:11.065Z,68.69
2023-11-25T03:36:11.072Z,68.72
2023-11-25T03:37:11.105Z,68.78
2023-11-25T03:38:11.066Z,68.80
2023-11-25T03:39:11.223Z,68.78
2023-11-25T03:40:12.093Z,68.84
2023-11-25T03:41:11.071Z,68.84
2023-11-25T03:42:11.064Z,68.85
2023-11-25T03:43:11.081Z,68.82
2023-11-25T03:44:11.072Z,68.79
2023-11-25T03:45:12.075Z,68.76
2023-11-25T03:46:11.101Z,68.79
2023-11-25T03:47:11.125Z,68.78
2023-11-25T03:48:11.107Z,68.79
2023-11-25T03:49:11.073Z,68.85
2023-11-25T03:50:11.068Z,68.84
2023-11-25T03:51:12.090Z,68.84
2023-11-25T03:52:11.091Z,68.85
2023-11-25T03:53:11.067Z,68.83
2023-11-25T03:54:11.075Z,68.88
2023-11-25T03:55:13.070Z,68.85
2023-11-25T03:56:11.067Z,68.91
2023-11-25T03:57:11.066Z,68.89
2023-11-25T03:58:11.078Z,68.86
2023-11-25T03:59:11.074Z,68.93
2023-11-25T04:00:15.066Z,68.95
2023-11-25T04:01:11.123Z,68.89
2023-11-25T04:02:11.193Z,68.92
2023-11-25T04:03:11.122Z,68.92
2023-11-25T04:04:11.132Z,68.87
2023-11-25T04:05:11.116Z,68.98
2023-11-25T04:06:11.070Z,69.06
2023-11-25T04:07:11.095Z,69.08
2023-11-25T04:08:11.068Z,69.16
2023-11-25T04:09:11.063Z,69.28
2023-11-25T04:10:15.290Z,69.29
2023-11-25T04:11:11.067Z,69.30
2023-11-25T04:12:11.077Z,69.34
2023-11-25T04:13:11.084Z,69.39
2023-11-25T04:14:11.070Z,69.45
2023-11-25T04:15:11.079Z,69.42
2023-11-25T04:16:11.117Z,69.57
2023-11-25T04:17:13.022Z,69.63
2023-11-25T04:18:11.136Z,69.61
2023-11-25T04:19:11.078Z,69.64
2023-11-25T04:20:15.634Z,69.67
2023-11-25T04:21:11.089Z,69.63
2023-11-25T04:22:11.082Z,69.58
2023-11-25T04:23:13.070Z,69.63
2023-11-25T04:24:11.071Z,69.64
2023-11-25T04:25:11.076Z,69.62
2023-11-25T04:26:11.065Z,69.65
2023-11-25T04:27:11.069Z,69.80
2023-11-25T04:28:11.061Z,69.83
2023-11-25T04:29:11.072Z,69.90
2023-11-25T04:30:11.130Z,69.96
2023-11-25T04:31:11.104Z,70.00
2023-11-25T04:32:11.169Z,69.96
2023-11-25T04:33:11.134Z,69.98
2023-11-25T04:34:11.105Z,70.01
2023-11-25T04:35:11.077Z,70.08
2023-11-25T04:36:11.067Z,70.13
2023-11-25T04:37:11.099Z,70.18
2023-11-25T04:38:11.074Z,70.22
2023-11-25T04:39:11.067Z,70.24
2023-11-25T04:40:11.077Z,70.24
2023-11-25T04:41:11.099Z,70.25
2023-11-25T04:42:11.078Z,70.34
2023-11-25T04:43:11.110Z,70.40
2023-11-25T04:44:11.072Z,70.49
2023-11-25T04:45:11.066Z,70.54
2023-11-25T04:46:13.086Z,70.64
2023-11-25T04:47:11.169Z,70.56
2023-11-25T04:48:11.083Z,70.57
2023-11-25T04:49:11.106Z,70.79
2023-11-25T04:50:11.082Z,70.88
2023-11-25T04:51:11.068Z,71.03
2023-11-25T04:52:11.133Z,71.09
2023-11-25T04:53:11.080Z,71.28
2023-11-25T04:54:11.069Z,71.45
2023-11-25T04:55:11.124Z,71.41
2023-11-25T04:56:12.546Z,71.58
2023-11-25T04:57:11.070Z,71.56
2023-11-25T04:58:11.126Z,71.50
2023-11-25T04:59:11.075Z,71.49
2023-11-25T05:00:14.069Z,71.51
2023-11-25T05:01:11.132Z,71.69
2023-11-25T05:02:11.325Z,71.67
2023-11-25T05:03:11.091Z,71.70
2023-11-25T05:04:11.067Z,71.67
2023-11-25T05:05:11.080Z,71.79
2023-11-25T05:06:13.075Z,72.03
2023-11-25T05:07:11.094Z,71.99
2023-11-25T05:08:11.078Z,72.04
2023-11-25T05:09:11.067Z,72.00
2023-11-25T05:10:11.713Z,72.03
2023-11-25T05:11:11.076Z,72.06
2023-11-25T05:12:11.067Z,72.09
2023-11-25T05:13:11.114Z,72.10
2023-11-25T05:14:11.079Z,72.27
2023-11-25T05:15:11.110Z,72.30
2023-11-25T05:16:11.165Z,72.50
2023-11-25T05:17:11.222Z,72.56
2023-11-25T05:18:11.086Z,72.67
2023-11-25T05:19:11.119Z,72.65
2023-11-25T05:20:14.071Z,72.71
2023-11-25T05:21:12.071Z,72.62
2023-11-25T05:22:11.092Z,72.76
2023-11-25T05:23:11.083Z,72.91
2023-11-25T05:24:11.077Z,72.89
2023-11-25T05:25:11.093Z,72.74
2023-11-25T05:26:11.075Z,72.68
2023-11-25T05:27:11.069Z,72.67
2023-11-25T05:28:11.124Z,72.68
2023-11-25T05:29:11.082Z,72.68
2023-11-25T05:30:11.072Z,72.71
2023-11-25T05:31:11.114Z,72.68
2023-11-25T05:32:13.126Z,72.54
2023-11-25T05:33:11.106Z,72.68
2023-11-25T05:34:11.085Z,72.70
2023-11-25T05:35:13.080Z,72.79
2023-11-25T05:36:11.083Z,72.66
2023-11-25T05:37:11.085Z,72.77
2023-11-25T05:38:11.075Z,72.84
2023-11-25T05:39:12.065Z,72.84
2023-11-25T05:40:13.207Z,72.81
2023-11-25T05:41:11.073Z,73.15
2023-11-25T05:42:11.082Z,73.23
2023-11-25T05:43:11.124Z,73.19
2023-11-25T05:44:12.070Z,73.25
2023-11-25T05:45:11.080Z,73.15
2023-11-25T05:46:11.230Z,73.17
2023-11-25T05:47:11.153Z,73.14
2023-11-25T05:48:11.086Z,72.99
2023-11-25T05:49:13.113Z,72.95
2023-11-25T05:50:11.072Z,73.07
2023-11-25T05:51:11.069Z,73.15
2023-11-25T05:52:11.191Z,73.17
2023-11-25T05:53:11.070Z,73.35
2023-11-25T05:54:11.068Z,73.19
2023-11-25T05:55:11.086Z,73.11
2023-11-25T05:56:11.071Z,73.08
2023-11-25T05:57:11.068Z,73.11
2023-11-25T05:58:11.072Z,73.08
2023-11-25T05:59:12.082Z,73.02
2023-11-25T06:00:11.068Z,73.03
2023-11-25T06:01:11.093Z,72.93
2023-11-25T06:02:11.087Z,73.09
2023-11-25T06:03:11.121Z,73.02
2023-11-25T06:04:11.200Z,73.30
2023-11-25T06:05:11.199Z,73.37
2023-11-25T06:06:12.071Z,73.23
2023-11-25T06:07:11.096Z,73.05
2023-11-25T06:08:11.072Z,73.31
2023-11-25T06:09:11.068Z,73.39
2023-11-25T06:10:11.155Z,73.39
2023-11-25T06:11:15.069Z,73.33
2023-11-25T06:12:11.100Z,73.22
2023-11-25T06:13:11.076Z,73.46
2023-11-25T06:14:11.072Z,73.37
2023-11-25T06:15:11.117Z,73.46
2023-11-25T06:16:11.078Z,73.44
2023-11-25T06:17:12.072Z,73.42
2023-11-25T06:18:11.187Z,73.52
2023-11-25T06:19:11.078Z,73.49
2023-11-25T06:20:11.096Z,73.50
2023-11-25T06:21:11.072Z,73.49
2023-11-25T06:22:12.136Z,73.47
2023-11-25T06:23:11.072Z,73.36
2023-11-25T06:24:11.073Z,73.34
2023-11-25T06:25:11.125Z,73.38
2023-11-25T06:26:12.071Z,73.38
2023-11-25T06:27:11.072Z,73.44
2023-11-25T06:28:11.077Z,73.37
2023-11-25T06:29:11.085Z,73.32
2023-11-25T06:30:11.076Z,73.41
2023-11-25T06:31:11.144Z,73.40
2023-11-25T06:32:11.065Z,73.43
2023-11-25T06:33:11.101Z,73.40
2023-11-25T06:34:11.082Z,73.44
2023-11-25T06:35:11.086Z,73.44
2023-11-25T06:36:11.083Z,73.40
2023-11-25T06:37:11.071Z,73.34
2023-11-25T06:38:11.195Z,73.45
2023-11-25T06:39:12.102Z,73.41
2023-11-25T06:40:11.071Z,73.51
2023-11-25T06:41:11.064Z,73.59
2023-11-25T06:42:12.063Z,73.56
2023-11-25T06:43:13.232Z,73.55
2023-11-25T06:44:11.074Z,73.67
2023-11-25T06:45:11.141Z,73.65
2023-11-25T06:46:11.143Z,73.60
2023-11-25T06:47:11.106Z,73.51
2023-11-25T06:48:11.078Z,73.41
2023-11-25T06:49:11.073Z,73.65
2023-11-25T06:50:11.068Z,73.57
2023-11-25T06:51:11.065Z,73.52
2023-11-25T06:52:11.066Z,73.63
2023-11-25T06:53:11.065Z,73.73
2023-11-25T06:54:11.065Z,73.64
2023-11-25T06:55:11.319Z,73.62
2023-11-25T06:56:13.067Z,73.70
2023-11-25T06:57:11.074Z,73.83
2023-11-25T06:58:11.068Z,73.79
2023-11-25T06:59:11.079Z,73.86
2023-11-25T07:00:13.115Z,73.82
2023-11-25T07:01:15.142Z,73.86
2023-11-25T07:02:11.180Z,74.04
2023-11-25T07:03:11.141Z,74.00
2023-11-25T07:04:11.076Z,73.94
2023-11-25T07:05:11.063Z,73.93
2023-11-25T07:06:11.073Z,73.85
2023-11-25T07:07:11.064Z,74.06
2023-11-25T07:08:13.094Z,73.92
2023-11-25T07:09:11.077Z,73.91
2023-11-25T07:10:14.078Z,74.00
2023-11-25T07:11:15.139Z,74.04
2023-11-25T07:12:11.076Z,74.07
2023-11-25T07:13:11.066Z,74.06
2023-11-25T07:14:11.066Z,74.08
2023-11-25T07:15:11.074Z,74.08
2023-11-25T07:16:11.070Z,73.97
2023-11-25T07:17:11.163Z,74.01
2023-11-25T07:18:11.095Z,73.82
2023-11-25T07:19:11.068Z,73.86
2023-11-25T07:20:11.076Z,74.10
2023-11-25T07:21:12.074Z,74.10
2023-11-25T07:22:11.069Z,74.12
2023-11-25T07:23:11.062Z,74.13
2023-11-25T07:24:11.073Z,74.26
2023-11-25T07:25:11.067Z,74.25
2023-11-25T07:26:11.071Z,74.23
2023-11-25T07:27:11.073Z,74.23
2023-11-25T07:28:11.063Z,74.28
2023-11-25T07:29:11.069Z,74.33
2023-11-25T07:30:11.076Z,74.33
2023-11-25T07:31:11.153Z,74.34
2023-11-25T07:32:11.172Z,74.33
2023-11-25T07:33:11.209Z,74.41
2023-11-25T07:34:11.065Z,74.27
2023-11-25T07:35:13.147Z,74.30
2023-11-25T07:36:11.071Z,74.24
2023-11-25T07:37:11.072Z,74.24
2023-11-25T07:38:11.078Z,74.17
2023-11-25T07:39:11.077Z,74.14
2023-11-25T07:40:14.069Z,74.23
2023-11-25T07:41:17.074Z,74.13
2023-11-25T07:42:11.080Z,74.22
2023-11-25T07:43:11.083Z,74.22
2023-11-25T07:44:11.067Z,74.27
2023-11-25T07:45:14.104Z,74.27
2023-11-25T07:46:12.084Z,74.24
2023-11-25T07:47:11.219Z,74.14
2023-11-25T07:48:11.138Z,74.11
2023-11-25T07:49:11.081Z,74.14
2023-11-25T07:50:11.069Z,74.01
2023-11-25T07:51:11.068Z,74.04
2023-11-25T07:52:11.070Z,73.97
2023-11-25T07:53:11.072Z,74.17
2023-11-25T07:54:11.071Z,74.15
2023-11-25T07:55:11.112Z,74.09
2023-11-25T07:56:11.065Z,74.12
2023-11-25T07:57:11.071Z,74.04
2023-11-25T07:58:11.070Z,74.06
2023-11-25T07:59:11.095Z,74.06
2023-11-25T08:00:11.072Z,74.10
2023-11-25T08:01:11.070Z,74.11
2023-11-25T08:02:11.186Z,74.02
2023-11-25T08:03:11.121Z,73.98
2023-11-25T08:04:11.131Z,73.94
2023-11-25T08:05:11.082Z,73.88
2023-11-25T08:06:11.078Z,73.97
2023-11-25T08:07:11.072Z,73.90
2023-11-25T08:08:11.075Z,73.88
2023-11-25T08:09:11.082Z,73.86
2023-11-25T08:10:11.072Z,73.80
2023-11-25T08:11:11.087Z,73.67
2023-11-25T08:12:11.110Z,73.69
2023-11-25T08:13:11.068Z,73.73
2023-11-25T08:14:11.087Z,73.75
2023-11-25T08:15:11.072Z,73.61
2023-11-25T08:16:12.089Z,73.61
2023-11-25T08:17:11.104Z,73.60
2023-11-25T08:18:11.118Z,73.74
2023-11-25T08:19:11.067Z,73.64
2023-11-25T08:20:13.083Z,73.53
2023-11-25T08:21:11.068Z,73.62
2023-11-25T08:22:11.069Z,73.72
2023-11-25T08:23:11.095Z,73.59
2023-11-25T08:24:11.067Z,73.54
2023-11-25T08:25:12.069Z,73.49
2023-11-25T08:26:20.076Z,73.65
2023-11-25T08:27:11.079Z,73.62
2023-11-25T08:28:11.076Z,73.54
2023-11-25T08:29:11.076Z,73.48
2023-11-25T08:30:15.070Z,73.50
2023-11-25T08:31:11.131Z,73.53
2023-11-25T08:32:11.146Z,73.64
2023-11-25T08:33:11.149Z,73.55
2023-11-25T08:34:13.097Z,73.47
2023-11-25T08:35:11.215Z,73.49
2023-11-25T08:36:11.070Z,73.56
2023-11-25T08:37:12.072Z,73.54
2023-11-25T08:38:11.131Z,73.61
2023-11-25T08:39:11.072Z,73.52
2023-11-25T08:40:11.396Z,73.50
2023-11-25T08:41:13.094Z,73.49
2023-11-25T08:42:12.080Z,73.52
2023-11-25T08:43:13.066Z,73.60
2023-11-25T08:44:11.072Z,73.58
2023-11-25T08:45:11.074Z,73.46
2023-11-25T08:46:11.084Z,73.56
2023-11-25T08:47:11.077Z,73.47
2023-11-25T08:48:13.146Z,73.48
2023-11-25T08:49:11.073Z,73.40
2023-11-25T08:50:12.280Z,73.42
2023-11-25T08:51:11.071Z,73.20
2023-11-25T08:52:11.068Z,73.18
2023-11-25T08:53:11.081Z,73.12
2023-11-25T08:54:11.078Z,73.05
2023-11-25T08:55:11.280Z,72.99
2023-11-25T08:56:11.075Z,72.72
2023-11-25T08:57:13.210Z,72.69
2023-11-25T08:58:12.077Z,72.61
2023-11-25T08:59:11.139Z,72.45
2023-11-25T09:00:15.069Z,72.43
2023-11-25T09:01:11.064Z,72.38
2023-11-25T09:02:11.229Z,72.52
2023-11-25T09:03:12.166Z,72.32
2023-11-25T09:04:11.125Z,72.42
2023-11-25T09:05:11.873Z,72.48
2023-11-25T09:06:11.069Z,72.33
2023-11-25T09:07:12.069Z,72.28
2023-11-25T09:08:12.095Z,72.42
2023-11-25T09:09:12.073Z,72.37
2023-11-25T09:10:11.072Z,72.29
2023-11-25T09:11:11.067Z,72.10
2023-11-25T09:12:11.073Z,72.24
2023-11-25T09:13:11.069Z,72.18
2023-11-25T09:14:11.069Z,72.12
2023-11-25T09:15:11.069Z,71.97
2023-11-25T09:16:11.120Z,71.92
2023-11-25T09:17:11.109Z,71.78
2023-11-25T09:18:11.131Z,71.74
2023-11-25T09:19:11.070Z,71.65
2023-11-25T09:20:17.083Z,71.64
2023-11-25T09:21:11.071Z,71.62
2023-11-25T09:22:11.066Z,71.50
2023-11-25T09:23:11.073Z,71.39
2023-11-25T09:24:11.089Z,71.23
2023-11-25T09:25:11.081Z,71.11
2023-11-25T09:26:11.069Z,71.00
2023-11-25T09:27:11.074Z,70.99
2023-11-25T09:28:11.081Z,70.86
2023-11-25T09:29:11.073Z,70.80
2023-11-25T09:30:11.060Z,70.63
2023-11-25T09:31:11.087Z,70.58
2023-11-25T09:32:11.062Z,70.41
2023-11-25T09:33:11.115Z,70.35
2023-11-25T09:34:11.084Z,70.15
2023-11-25T09:35:11.102Z,69.99
2023-11-25T09:36:11.081Z,69.88
2023-11-25T09:37:11.071Z,69.74
2023-11-25T09:38:11.072Z,69.61
2023-11-25T09:39:14.062Z,69.64
2023-11-25T09:40:11.068Z,69.44
2023-11-25T09:41:11.065Z,69.43
2023-11-25T09:42:11.103Z,69.54
2023-11-25T09:43:11.089Z,69.48
2023-11-25T09:44:12.070Z,69.39
2023-11-25T09:45:11.072Z,69.38
2023-11-25T09:46:11.097Z,69.28
2023-11-25T09:47:11.076Z,69.29
2023-11-25T09:48:11.062Z,69.18
2023-11-25T09:49:11.073Z,69.20
2023-11-25T09:50:11.071Z,69.17
2023-11-25T09:51:11.064Z,69.07
2023-11-25T09:52:11.065Z,69.02
2023-11-25T09:53:14.070Z,69.06
2023-11-25T09:54:16.088Z,69.01
2023-11-25T09:55:11.084Z,68.72
2023-11-25T09:56:11.069Z,68.75
2023-11-25T09:57:11.073Z,68.65
2023-11-25T09:58:11.106Z,68.50
2023-11-25T09:59:11.079Z,68.57
2023-11-25T10:00:14.066Z,68.44
2023-11-25T10:01:11.065Z,68.30
2023-11-25T10:02:11.176Z,68.18
2023-11-25T10:03:11.271Z,68.14
2023-11-25T10:04:12.086Z,68.13
2023-11-25T10:05:11.072Z,68.12
2023-11-25T10:06:11.058Z,67.99
2023-11-25T10:07:11.073Z,68.00
2023-11-25T10:08:11.070Z,67.96
2023-11-25T10:09:14.061Z,67.93
2023-11-25T10:10:11.066Z,67.97
2023-11-25T10:11:13.073Z,68.07
2023-11-25T10:12:11.065Z,67.97
2023-11-25T10:13:15.068Z,67.80
2023-11-25T10:14:11.075Z,67.66
2023-11-25T10:15:12.067Z,67.77
2023-11-25T10:16:11.145Z,67.72
2023-11-25T10:17:17.072Z,67.70
2023-11-25T10:18:11.072Z,67.69
2023-11-25T10:19:17.064Z,67.67
2023-11-25T10:20:16.341Z,67.62
2023-11-25T10:21:13.069Z,67.41
2023-11-25T10:22:11.069Z,67.46
2023-11-25T10:23:11.069Z,67.49
2023-11-25T10:24:11.078Z,67.38
2023-11-25T10:25:11.074Z,67.21
2023-11-25T10:26:11.077Z,67.35
2023-11-25T10:27:11.069Z,67.24
2023-11-25T10:28:14.069Z,67.34
2023-11-25T10:29:11.079Z,67.16
2023-11-25T10:30:12.156Z,66.99
2023-11-25T10:31:11.077Z,67.02
2023-11-25T10:32:11.071Z,67.16
2023-11-25T10:33:11.071Z,67.09
2023-11-25T10:34:11.109Z,66.73
2023-11-25T10:35:11.066Z,66.82
2023-11-25T10:36:11.065Z,66.92
2023-11-25T10:37:11.090Z,66.83
2023-11-25T10:38:11.230Z,66.75
2023-11-25T10:39:13.069Z,66.61
2023-11-25T10:40:11.081Z,66.45
2023-11-25T10:41:11.070Z,66.20
2023-11-25T10:42:12.133Z,66.29
2023-11-25T10:43:11.070Z,66.16
2023-11-25T10:44:11.156Z,65.94
2023-11-25T10:45:17.116Z,65.83
2023-11-25T10:46:11.119Z,65.57
2023-11-25T10:47:15.067Z,65.47
2023-11-25T10:48:11.143Z,65.55
2023-11-25T10:49:11.077Z,65.31
2023-11-25T10:50:11.068Z,65.23
2023-11-25T10:51:11.094Z,65.09
2023-11-25T10:52:11.077Z,65.09
2023-11-25T10:53:12.071Z,65.05
2023-11-25T10:54:11.075Z,65.15
2023-11-25T10:55:11.103Z,64.90
2023-11-25T10:56:11.147Z,64.77
2023-11-25T10:57:11.073Z,65.01
2023-11-25T10:58:11.078Z,64.87
2023-11-25T10:59:12.073Z,64.77
2023-11-25T11:00:15.073Z,64.54
2023-11-25T11:01:11.141Z,64.57
2023-11-25T11:02:18.232Z,64.56
2023-11-25T11:03:11.271Z,64.60
2023-11-25T11:04:19.072Z,64.32
2023-11-25T11:05:13.084Z,64.08
2023-11-25T11:06:11.080Z,63.81
2023-11-25T11:07:13.071Z,63.17
2023-11-25T11:08:14.089Z,63.24
2023-11-25T11:09:11.071Z,63.23
2023-11-25T11:10:11.080Z,63.28
2023-11-25T11:11:17.077Z,62.96
2023-11-25T11:12:16.073Z,63.00
2023-11-25T11:13:11.070Z,62.91
2023-11-25T11:14:13.117Z,62.92
2023-11-25T11:15:17.071Z,62.79
2023-11-25T11:16:17.070Z,62.47
2023-11-25T11:17:19.073Z,63.07
2023-11-25T11:18:22.237Z,62.70
2023-11-25T11:19:11.182Z,62.58
2023-11-25T11:20:14.133Z,62.10
2023-11-25T11:21:11.082Z,61.95
2023-11-25T11:22:15.091Z,61.94
2023-11-25T11:23:11.073Z,62.01
2023-11-25T11:24:11.068Z,61.95
2023-11-25T11:25:15.081Z,62.31
2023-11-25T11:26:23.077Z,62.29
2023-11-25T11:27:22.071Z,62.19
2023-11-25T11:28:19.070Z,62.19
2023-11-25T11:29:18.078Z,62.11
2023-11-25T11:30:22.097Z,62.11
2023-11-25T11:31:19.096Z,61.80
2023-11-25T11:32:11.199Z,61.80
2023-11-25T11:33:11.110Z,61.83
2023-11-25T11:34:11.074Z,61.63
2023-11-25T11:35:11.153Z,61.57
2023-11-25T11:36:19.075Z,61.97
2023-11-25T11:37:12.072Z,61.69
2023-11-25T11:38:19.076Z,61.66
2023-11-25T11:39:15.075Z,61.38
2023-11-25T11:40:11.097Z,61.43
2023-11-25T11:41:22.116Z,61.60
2023-11-25T11:42:19.075Z,61.61
2023-11-25T11:43:16.146Z,61.82
2023-11-25T11:44:11.123Z,61.94
2023-11-25T11:45:15.110Z,62.05
2023-11-25T11:46:11.110Z,61.98
2023-11-25T11:47:11.069Z,61.92
2023-11-25T11:48:14.117Z,62.05
2023-11-25T11:49:12.085Z,62.22
2023-11-25T11:50:15.076Z,62.27
2023-11-25T11:51:12.076Z,62.43
2023-11-25T11:52:12.083Z,62.31
2023-11-25T11:53:14.225Z,62.35
2023-11-25T11:54:19.088Z,62.51
2023-11-25T11:55:19.076Z,62.44
2023-11-25T11:56:11.112Z,62.34
2023-11-25T11:57:11.079Z,62.56
2023-11-25T11:58:15.100Z,62.65
2023-11-25T11:59:11.070Z,62.62
2023-11-25T12:00:15.082Z,62.71
2023-11-25T12:01:11.083Z,62.46
2023-11-25T12:02:11.141Z,62.32
2023-11-25T12:03:11.083Z,62.16
2023-11-25T12:04:11.124Z,62.41
2023-11-25T12:05:11.247Z,62.24
2023-11-25T12:06:13.078Z,62.18
2023-11-25T12:07:11.074Z,62.17
2023-11-25T12:08:13.079Z,62.16
2023-11-25T12:09:11.082Z,62.15
2023-11-25T12:10:11.087Z,62.26
2023-11-25T12:11:11.074Z,62.35
2023-11-25T12:12:11.102Z,62.17
2023-11-25T12:13:11.074Z,62.39
2023-11-25T12:14:11.081Z,62.56
2023-11-25T12:15:11.079Z,62.57
2023-11-25T12:16:11.095Z,62.46
2023-11-25T12:17:11.136Z,62.51
2023-11-25T12:18:13.098Z,62.52
2023-11-25T12:19:11.077Z,62.57
2023-11-25T12:20:11.081Z,62.57
2023-11-25T12:21:11.103Z,62.59
2023-11-25T12:22:11.106Z,62.92
2023-11-25T12:23:11.083Z,62.99
2023-11-25T12:24:14.089Z,62.89
2023-11-25T12:25:11.079Z,62.88
2023-11-25T12:26:11.074Z,63.07
2023-11-25T12:27:12.085Z,63.09
2023-11-25T12:28:11.091Z,63.11
2023-11-25T12:29:11.066Z,63.12
2023-11-25T12:30:11.073Z,63.21
2023-11-25T12:31:11.076Z,63.14
2023-11-25T12:32:11.217Z,63.37
2023-11-25T12:33:13.080Z,63.39
2023-11-25T12:34:11.066Z,63.64
2023-11-25T12:35:12.064Z,63.68
2023-11-25T12:36:12.065Z,63.54
2023-11-25T12:37:11.066Z,63.47
2023-11-25T12:39:15.097Z,63.40
2023-11-25T12:40:19.067Z,63.47
2023-11-25T12:41:15.065Z,63.53
2023-11-25T12:42:11.065Z,63.67
2023-11-25T12:43:11.065Z,63.45
2023-11-25T12:44:15.143Z,63.35
2023-11-25T12:45:11.068Z,63.29
2023-11-25T12:46:13.095Z,63.23
2023-11-25T12:47:12.100Z,63.18
2023-11-25T12:48:13.149Z,63.15
2023-11-25T12:49:19.067Z,63.22
2023-11-25T12:50:11.100Z,63.14
2023-11-25T12:51:12.073Z,63.18
2023-11-25T12:52:19.063Z,63.31
2023-11-25T12:53:13.068Z,63.37